Flight Track Log - Related Links

Times and Time Zones

All times are in EDT time to prevent confusion due to time zone crossing. See the AWI4084 flight status page for this flight to view local times or setup timezone preferences in your user account.

Time Position Orientation Groundspeed Altitude Reporting Facility
EDT Latitude Longitude Course Direction KTS MPH feet Rate Location/Type
Sun 03:28:18 PM 38.7833 -77.0333 346° North 192 221 2,800  Level Potomac TRACON
Sun 03:29:00 PM 39.0932 -77.1651 336° Northwest  Level FlightAware Approximate
Sun 03:29:18 PM 38.7333 -77.0667 207° Southwest 263 303 4,300  Level Potomac TRACON
Sun 03:30:00 PM 39.1763 -77.2126 336° Northwest  Level FlightAware Approximate
Sun 03:30:19 PM 38.7833 -77.1333 314° West 272 313 7,100  Level Potomac TRACON
Sun 03:30:39 PM 38.8053 -77.1581 319° Northwest 275 316 7,600 2,148 Climbing Washington Center
Sun 03:31:00 PM 39.2623 -77.2494 337° Northwest  Level FlightAware Approximate
Sun 03:31:40 PM 38.8669 -77.2128 325° Northwest 286 329 10,000  Level Washington Center
Sun 03:32:00 PM 39.3459 -77.2958 337° Northwest  Level FlightAware Approximate
Sun 03:32:19 PM 38.9167 -77.2667 320° Northwest 302 348 11,000  Level Potomac TRACON
Sun 03:33:00 PM 39.4319 -77.3328 346° North  Level FlightAware Approximate
Sun 03:33:19 PM 38.9833 -77.3333 322° Northwest 337 388 12,600  Level Potomac TRACON
Sun 03:34:19 PM 39.0667 -77.4000 328° Northwest 361 415 14,200 1,512 Climbing Potomac TRACON
Sun 03:35:26 PM 39.1833 -77.4167 354° North 370 426 15,800 1,517 Climbing Potomac TRACON
Sun 03:37:17 PM 39.3714 -77.4186 360° North 381 438 18,700 1,291 Climbing New York Center
Sun 03:38:18 PM 39.4725 -77.4011 North 381 438 19,500 1,140 Climbing New York Center
Sun 03:39:18 PM 39.5717 -77.3833 North 370 426 21,000 1,119 Climbing New York Center
Sun 03:40:16 PM 39.6725 -77.3686 North 362 417 21,700 814 Climbing New York Center
Sun 03:41:16 PM 39.7736 -77.3511 North 362 417 22,600 700 Climbing New York Center
Sun 03:42:16 PM 39.8758 -77.3497 North 362 417 23,100 446 Climbing New York Center
Sun 03:43:17 PM 39.9822 -77.3111 16° North 376 433 23,500 492 Climbing New York Center
Sun 03:44:18 PM 40.0931 -77.2700 16° North 388 447 24,100 555 Climbing New York Center
Sun 03:45:16 PM 40.1931 -77.2331 16° North 400 460 24,600 454 Climbing New York Center
Sun 03:46:17 PM 40.3058 -77.1892 17° North 411 473 25,000 198 Climbing New York Center
Sun 03:47:17 PM 40.4228 -77.1481 15° North 417 480 25,000  Level New York Center
Sun 03:48:18 PM 40.5417 -77.1044 16° North 428 493 25,000  Level New York Center
Sun 03:49:15 PM 40.6589 -77.0606 16° North 433 498 25,000  Level New York Center
Sun 03:50:16 PM 40.7778 -77.0167 16° North 433 498 25,000  Level New York Center
Sun 03:51:17 PM 40.8969 -76.9725 16° North 433 498 25,000 -397 Level New York Center
Sun 03:52:17 PM 41.0161 -76.9258 16° North 433 498 24,200 -908 Descending New York Center
Sun 03:53:16 PM 41.1328 -76.8814 16° North 438 504 23,200 -605 Descending New York Center
Sun 03:54:16 PM 41.2497 -76.8394 15° North 438 504 23,000 -100 Descending New York Center
Sun 03:55:16 PM 41.3728 -76.7925 16° North 426 490 23,000  Level New York Center
Sun 03:56:17 PM 41.4811 -76.7522 16° North 412 474 23,000  Level New York Center
Sun 03:57:18 PM 41.5875 -76.7089 17° North 407 468 23,000  Level New York Center
Sun 03:58:16 PM 41.6978 -76.6689 15° North 407 468 23,000 -356 Level New York Center
Sun 03:59:16 PM 41.8042 -76.6253 17° North 407 468 22,300 -1,091 Descending New York Center
Sun 04:00:17 PM 41.9200 -76.5967 10° North 407 468 20,800 -1,537 Descending New York Center
Sun 04:01:17 PM 42.0394 -76.5819 North 418 481 19,200 -1,613 Descending New York Center
Sun 04:02:16 PM 42.1564 -76.5753 North 423 487 17,600 -1,261 Descending New York Center
Sun 04:03:16 PM 42.2647 -76.5736 North 415 478 16,700 -1,407 Descending New York Center
Sun 04:04:41 PM 42.4067 -76.5683 North 346 398 14,200 -1,738 Descending Boston Center
Sun 04:05:41 PM 42.5056 -76.5383 13° North 361 415 12,500 -1,587 Descending Boston Center
Sun 04:06:42 PM 42.6025 -76.5167 North 349 402 11,000 -744 Descending Boston Center
Sun 04:07:42 PM 42.6947 -76.5000 North 344 396 11,000 -347 Level Boston Center
Sun 04:08:43 PM 42.7628 -76.4056 46° Northeast 354 407 10,300 -1,082 Descending Boston Center
Sun 04:09:44 PM 42.8264 -76.3133 47° Northeast 337 388 8,800 -1,587 Descending Boston Center
Sun 04:10:44 PM 42.8922 -76.2181 47° Northeast 314 361 7,100 -1,587 Descending Boston Center
Sun 04:11:45 PM 42.9533 -76.1339 45° Northeast 307 353 5,600 -1,525 Descending Boston Center
Sun 04:12:46 PM 43.0078 -76.0606 45° Northeast 278 320 4,000 -1,574 Descending Boston Center

Login

Don't have an account? Register now (free) for customized features, flight alerts, and more!